createdAt,value
2022-12-23T00:02:13.019Z,17.5
2022-12-23T00:07:21.072Z,17.5
2022-12-23T00:12:29.338Z,17.5
2022-12-23T00:17:37.430Z,17
2022-12-23T00:22:45.601Z,17.5
2022-12-23T00:27:53.756Z,17.5
2022-12-23T00:33:01.947Z,17.5
2022-12-23T00:38:10.121Z,17.5
2022-12-23T00:43:18.287Z,17.5
2022-12-23T00:48:26.467Z,17
2022-12-23T00:53:34.643Z,17.5
2022-12-23T00:58:42.829Z,17.5
2022-12-23T01:03:50.988Z,17.5
2022-12-23T01:08:59.170Z,17.5
2022-12-23T01:14:07.338Z,17
2022-12-23T01:19:15.510Z,17.5
2022-12-23T01:24:23.681Z,18
2022-12-23T01:29:31.866Z,17.5
2022-12-23T01:34:40.067Z,17.5
2022-12-23T01:39:48.202Z,18
2022-12-23T01:44:56.389Z,17.5
2022-12-23T01:50:04.632Z,18
2022-12-23T01:55:12.819Z,17.5
2022-12-23T02:00:20.985Z,17.5
2022-12-23T02:05:29.186Z,17.5
2022-12-23T02:10:37.368Z,17.5
2022-12-23T02:15:45.508Z,18
2022-12-23T02:20:53.682Z,18
2022-12-23T02:26:01.841Z,18
2022-12-23T02:31:10.028Z,18
2022-12-23T02:36:18.195Z,18
2022-12-23T02:41:26.370Z,17.5
2022-12-23T02:46:34.545Z,18
2022-12-23T02:51:42.745Z,17.5
2022-12-23T02:56:50.885Z,17.5
2022-12-23T03:01:59.062Z,18
2022-12-23T03:07:07.240Z,17.5
2022-12-23T03:12:15.402Z,17.5
2022-12-23T03:22:31.746Z,17.5
2022-12-23T03:27:39.936Z,17.5
2022-12-23T03:32:48.102Z,17.5
2022-12-23T03:37:56.284Z,18
2022-12-23T03:43:04.438Z,17.5
2022-12-23T03:48:12.625Z,18
2022-12-23T03:53:20.860Z,18
2022-12-23T04:03:37.143Z,17.5
2022-12-23T04:08:45.329Z,18
2022-12-23T04:13:53.502Z,18
2022-12-23T04:19:01.667Z,17.5
2022-12-23T04:24:09.827Z,17.5
2022-12-23T04:29:18.005Z,17.5
2022-12-23T04:34:26.217Z,17.5
2022-12-23T04:39:34.364Z,17.5
2022-12-23T04:44:42.535Z,17
2022-12-23T04:49:50.755Z,17.5
2022-12-23T04:54:58.873Z,18
2022-12-23T05:00:07.057Z,17.5
2022-12-23T05:05:15.234Z,18
2022-12-23T05:10:23.391Z,17.5
2022-12-23T05:15:31.573Z,18
2022-12-23T05:20:39.749Z,17.5
2022-12-23T05:25:47.911Z,17.5
2022-12-23T05:30:56.080Z,17.5
2022-12-23T05:36:04.305Z,17
2022-12-23T05:41:12.452Z,17.5
2022-12-23T05:46:20.623Z,18
2022-12-23T05:51:28.788Z,18
2022-12-23T05:56:37.026Z,18
2022-12-23T06:01:45.136Z,18
2022-12-23T06:06:53.321Z,18
2022-12-23T06:12:01.506Z,17.5
2022-12-23T06:17:09.658Z,17.5
2022-12-23T06:22:17.836Z,17.5
2022-12-23T06:27:26.023Z,18
2022-12-23T06:32:34.162Z,18
2022-12-23T06:37:42.403Z,18
2022-12-23T06:47:58.681Z,18
2022-12-23T06:53:06.974Z,18
2022-12-23T06:58:15.034Z,18
2022-12-23T07:03:23.229Z,17.5
2022-12-23T07:08:31.390Z,18
2022-12-23T07:13:39.570Z,18.5
2022-12-23T07:18:47.796Z,18.5
2022-12-23T07:23:55.949Z,19
2022-12-23T07:29:04.073Z,18.5
2022-12-23T07:34:12.245Z,18.5
2022-12-23T07:39:20.413Z,18.5
2022-12-23T07:44:28.589Z,18.5
2022-12-23T07:49:36.790Z,18.5
2022-12-23T07:54:44.931Z,18.5
2022-12-23T07:59:53.114Z,18.5
2022-12-23T08:05:01.289Z,18.5
2022-12-23T08:10:09.493Z,18.5
2022-12-23T08:15:17.628Z,18.5
2022-12-23T08:20:25.893Z,18.5
2022-12-23T08:25:34.020Z,18.5
2022-12-23T08:30:42.152Z,18.5
2022-12-23T08:35:50.328Z,19
2022-12-23T08:40:58.541Z,18.5
2022-12-23T08:46:06.679Z,18.5
2022-12-23T08:51:14.872Z,18.5
2022-12-23T08:56:23.031Z,18.5
2022-12-23T09:01:31.204Z,16.5
2022-12-23T09:06:39.370Z,18.5
2022-12-23T09:11:47.550Z,18.5
2022-12-23T09:16:55.729Z,18.5
2022-12-23T09:22:03.906Z,18.5
2022-12-23T09:27:12.058Z,19
2022-12-23T09:32:20.249Z,18.5
2022-12-23T09:37:28.409Z,18.5
2022-12-23T09:42:36.603Z,18.5
2022-12-23T09:47:44.779Z,18.5
2022-12-23T09:52:52.943Z,18.5
2022-12-23T09:58:01.135Z,18
2022-12-23T10:03:09.292Z,18.5
2022-12-23T10:08:17.453Z,18.5
2022-12-23T10:13:25.626Z,17.5
2022-12-23T10:18:33.807Z,18.5
2022-12-23T10:23:41.974Z,18.5
2022-12-23T10:28:50.152Z,18.5
2022-12-23T10:33:58.317Z,18
2022-12-23T10:39:06.559Z,18
2022-12-23T10:44:14.942Z,18.5
2022-12-23T10:49:23.041Z,18.5
2022-12-23T10:54:31.162Z,19
2022-12-23T10:59:39.366Z,18.5
2022-12-23T11:04:47.574Z,18.5
2022-12-23T11:09:55.716Z,17.5
2022-12-23T11:15:03.825Z,18.5
2022-12-23T11:20:11.904Z,18.5
2022-12-23T11:25:20.282Z,18
2022-12-23T11:35:36.667Z,18
2022-12-23T11:40:44.576Z,18.5
2022-12-23T11:45:52.944Z,18
2022-12-23T11:51:01.084Z,18
2022-12-23T11:56:09.244Z,18
2022-12-23T12:01:17.428Z,18.5
2022-12-23T12:06:25.635Z,18
2022-12-23T12:11:33.817Z,18
2022-12-23T12:16:42.049Z,18
2022-12-23T12:21:50.063Z,17.5
2022-12-23T12:26:58.334Z,17.5
2022-12-23T12:32:06.497Z,18.5
2022-12-23T12:37:14.788Z,18
2022-12-23T12:42:22.967Z,18
2022-12-23T12:47:31.145Z,17.5
2022-12-23T12:52:39.418Z,18
2022-12-23T12:57:47.533Z,18.5
2022-12-23T13:02:55.671Z,17.5
2022-12-23T13:08:03.841Z,18
2022-12-23T13:13:12.032Z,18
2022-12-23T13:18:20.221Z,18
2022-12-23T13:23:28.364Z,18
2022-12-23T13:28:36.519Z,18
2022-12-23T13:38:52.920Z,18
2022-12-23T13:44:01.059Z,18.5
2022-12-23T13:49:09.265Z,17.5
2022-12-23T13:54:17.435Z,18
2022-12-23T13:59:25.590Z,18
2022-12-23T14:04:33.717Z,18
2022-12-23T14:09:41.953Z,18.5
2022-12-23T14:14:50.076Z,19.5
2022-12-23T14:19:58.303Z,18
2022-12-23T14:25:06.467Z,18
2022-12-23T14:30:14.685Z,18.5
2022-12-23T14:35:22.801Z,18
2022-12-23T14:40:30.967Z,18
2022-12-23T14:45:39.145Z,18
2022-12-23T14:50:47.329Z,18
2022-12-23T14:55:55.481Z,18
2022-12-23T15:01:03.691Z,18
2022-12-23T15:06:11.855Z,18
2022-12-23T15:11:20.002Z,17.5
2022-12-23T15:16:28.170Z,17.5
2022-12-23T15:21:36.352Z,18
2022-12-23T15:26:44.482Z,18
2022-12-23T15:31:52.560Z,17.5
2022-12-23T15:37:00.873Z,18
2022-12-23T15:42:09.025Z,17.5
2022-12-23T15:47:17.075Z,17.5
2022-12-23T15:52:25.346Z,17.5
2022-12-23T15:57:33.572Z,17.5
2022-12-23T16:02:41.587Z,17.5
2022-12-23T16:07:50.003Z,17.5
2022-12-23T16:12:58.092Z,18
2022-12-23T16:18:06.286Z,18
2022-12-23T16:23:14.286Z,18
2022-12-23T16:28:22.629Z,17.5
2022-12-23T16:33:30.756Z,18
2022-12-23T16:38:38.979Z,17.5
2022-12-23T16:43:47.120Z,18
2022-12-23T16:48:55.320Z,17.5
2022-12-23T16:54:03.642Z,17.5
2022-12-23T16:59:11.785Z,17.5
2022-12-23T17:04:19.806Z,17.5
2022-12-23T17:09:28.045Z,17
2022-12-23T17:14:36.160Z,17.5
2022-12-23T17:19:44.393Z,17.5
2022-12-23T17:24:52.585Z,17.5
2022-12-23T17:30:00.547Z,18
2022-12-23T17:35:08.869Z,18
2022-12-23T17:40:16.898Z,17.5
2022-12-23T17:45:25.174Z,17.5
2022-12-23T17:50:33.412Z,18
2022-12-23T17:55:41.593Z,18
2022-12-23T18:00:49.815Z,17.5
2022-12-23T18:05:57.824Z,18
2022-12-23T18:11:06.048Z,18
2022-12-23T18:16:14.169Z,18
2022-12-23T18:21:22.344Z,18
2022-12-23T18:26:30.457Z,18.5
2022-12-23T18:31:38.674Z,18.5
2022-12-23T18:36:46.944Z,18.5
2022-12-23T18:41:55.024Z,18.5
2022-12-23T18:47:03.166Z,18.5
2022-12-23T18:52:11.314Z,19
2022-12-23T18:57:19.491Z,19
2022-12-23T19:02:27.748Z,19
2022-12-23T19:07:35.917Z,19
2022-12-23T19:12:44.021Z,19.5
2022-12-23T19:17:52.187Z,19.5
2022-12-23T19:23:00.416Z,20
2022-12-23T19:28:08.539Z,20.5
2022-12-23T19:33:16.803Z,20.5
2022-12-23T19:38:24.887Z,21
2022-12-23T19:43:33.205Z,21.5
2022-12-23T19:48:41.393Z,21.5
2022-12-23T19:53:49.528Z,21.5
2022-12-23T19:58:57.699Z,21.5
2022-12-23T20:04:05.855Z,22
2022-12-23T20:09:13.993Z,22
2022-12-23T20:14:22.087Z,21.5
2022-12-23T20:19:30.280Z,22
2022-12-23T20:24:38.445Z,22
2022-12-23T20:29:46.622Z,21.5
2022-12-23T20:34:54.820Z,22.5
2022-12-23T20:40:02.979Z,21.5
2022-12-23T20:45:11.159Z,22
2022-12-23T20:50:19.316Z,22.5
2022-12-23T20:55:27.476Z,22
2022-12-23T21:00:35.703Z,22.5
2022-12-23T21:05:43.834Z,22
2022-12-23T21:10:51.995Z,22
2022-12-23T21:16:00.241Z,22
2022-12-23T21:21:08.350Z,22.5
2022-12-23T21:26:16.565Z,22
2022-12-23T21:31:24.690Z,23
2022-12-23T21:36:32.877Z,22
2022-12-23T21:41:41.061Z,22
2022-12-23T21:46:49.299Z,22
2022-12-23T21:51:57.416Z,22
2022-12-23T21:57:05.575Z,22.5
2022-12-23T22:02:13.755Z,23
2022-12-23T22:07:21.922Z,22.5
2022-12-23T22:12:30.115Z,23
2022-12-23T22:17:38.338Z,22.5
2022-12-23T22:22:46.493Z,22.5
2022-12-23T22:27:54.697Z,23
2022-12-23T22:33:02.827Z,22.5
2022-12-23T22:38:11.013Z,22
2022-12-23T22:43:19.225Z,23
2022-12-23T22:48:27.326Z,22
2022-12-23T22:53:35.626Z,22.5
2022-12-23T22:58:43.701Z,22.5
2022-12-23T23:03:51.867Z,23
2022-12-23T23:09:00.037Z,22.5
2022-12-23T23:14:08.207Z,23
2022-12-23T23:19:16.483Z,22.5
2022-12-23T23:24:24.586Z,22
2022-12-23T23:29:32.713Z,22.5
2022-12-23T23:34:40.987Z,22
2022-12-23T23:39:49.080Z,22
2022-12-23T23:44:57.252Z,22
2022-12-23T23:50:05.424Z,21.5
2022-12-23T23:55:13.591Z,21.5
